createdAt,value
2022-08-11T00:00:52.225Z,99.90
2022-08-11T00:02:54.898Z,99.90
2022-08-11T00:05:01.253Z,99.90
2022-08-11T00:07:05.046Z,99.90
2022-08-11T00:09:18.500Z,99.90
2022-08-11T00:11:21.220Z,99.90
2022-08-11T00:13:32.188Z,99.90
2022-08-11T00:15:44.338Z,99.90
2022-08-11T00:17:47.558Z,99.90
2022-08-11T00:20:15.133Z,99.90
2022-08-11T00:22:21.055Z,99.90
2022-08-11T00:24:24.479Z,99.90
2022-08-11T00:26:28.149Z,99.90
2022-08-11T00:28:32.253Z,99.90
2022-08-11T00:30:40.919Z,99.90
2022-08-11T00:32:45.063Z,99.90
2022-08-11T00:34:48.145Z,99.90
2022-08-11T00:37:10.349Z,99.90
2022-08-11T00:39:13.801Z,99.90
2022-08-11T00:41:18.520Z,99.90
2022-08-11T00:43:29.835Z,99.90
2022-08-11T00:45:42.327Z,99.90
2022-08-11T00:47:55.762Z,99.90
2022-08-11T00:50:36.228Z,99.90
2022-08-11T00:53:08.124Z,99.90
2022-08-11T00:55:30.838Z,99.90
2022-08-11T00:57:51.293Z,99.90
2022-08-11T01:00:13.349Z,99.90
2022-08-11T01:02:42.044Z,99.90
2022-08-11T01:04:46.558Z,99.90
2022-08-11T01:07:12.664Z,99.90
2022-08-11T01:09:32.955Z,99.90
2022-08-11T01:12:03.970Z,99.90
2022-08-11T01:14:34.510Z,99.90
2022-08-11T01:16:51.822Z,99.90
2022-08-11T01:19:14.212Z,99.90
2022-08-11T01:21:53.816Z,99.90
2022-08-11T01:24:27.086Z,99.90
2022-08-11T01:26:37.563Z,99.90
2022-08-11T01:29:15.845Z,99.90
2022-08-11T01:31:42.204Z,99.90
2022-08-11T01:34:02.555Z,99.90
2022-08-11T01:36:32.084Z,99.90
2022-08-11T01:38:58.092Z,99.90
2022-08-11T01:41:47.617Z,99.90
2022-08-11T01:44:40.232Z,99.90
2022-08-11T01:46:57.714Z,99.90
2022-08-11T01:50:01.052Z,99.90
2022-08-11T01:52:15.155Z,99.90
2022-08-11T01:54:27.277Z,99.90
2022-08-11T01:56:50.288Z,99.90
2022-08-11T01:59:13.381Z,99.90
2022-08-11T02:01:37.359Z,99.90
2022-08-11T02:04:03.276Z,99.90
2022-08-11T02:06:30.874Z,99.90
2022-08-11T02:08:52.024Z,99.90
2022-08-11T02:11:31.085Z,99.90
2022-08-11T02:13:52.185Z,99.90
2022-08-11T02:16:22.826Z,99.90
2022-08-11T02:18:52.750Z,99.90
2022-08-11T02:21:24.768Z,99.90
2022-08-11T02:23:59.651Z,99.90
2022-08-11T02:26:33.255Z,99.90
2022-08-11T02:28:46.597Z,99.90
2022-08-11T02:32:15.860Z,99.90
2022-08-11T02:35:00.669Z,99.90
2022-08-11T02:37:31.781Z,99.90
2022-08-11T02:39:47.720Z,99.90
2022-08-11T02:42:32.458Z,99.90
2022-08-11T02:45:11.882Z,99.90
2022-08-11T02:47:38.290Z,99.90
2022-08-11T02:50:02.641Z,99.90
2022-08-11T02:52:45.372Z,99.90
2022-08-11T02:55:08.863Z,99.90
2022-08-11T02:57:22.574Z,99.90
2022-08-11T02:59:46.348Z,99.90
2022-08-11T03:02:32.202Z,99.90
2022-08-11T03:04:49.914Z,99.90
2022-08-11T03:07:46.801Z,99.90
2022-08-11T03:10:00.311Z,99.90
2022-08-11T03:12:42.651Z,99.90
2022-08-11T03:15:20.388Z,99.90
2022-08-11T03:17:32.483Z,99.90
2022-08-11T03:19:37.234Z,99.90
2022-08-11T03:22:02.796Z,99.90
2022-08-11T03:24:33.638Z,99.90
2022-08-11T03:27:03.128Z,99.90
2022-08-11T03:29:24.938Z,99.90
2022-08-11T03:31:30.084Z,99.90
2022-08-11T03:34:05.530Z,99.90
2022-08-11T03:36:25.752Z,99.90
2022-08-11T03:38:34.190Z,99.90
2022-08-11T03:42:01.203Z,99.90
2022-08-11T03:43:58.454Z,99.90
2022-08-11T03:46:12.401Z,99.90
2022-08-11T03:48:22.994Z,99.90
2022-08-11T03:50:51.899Z,99.90
2022-08-11T03:53:14.985Z,99.90
2022-08-11T03:55:41.779Z,99.90
2022-08-11T03:58:09.408Z,99.90
2022-08-11T04:00:43.905Z,99.90
2022-08-11T04:03:44.243Z,99.90
2022-08-11T04:05:45.954Z,99.90
2022-08-11T04:08:04.143Z,99.90
2022-08-11T04:10:17.959Z,99.90
2022-08-11T04:12:47.874Z,99.90
2022-08-11T04:15:27.491Z,99.90
2022-08-11T04:17:35.572Z,99.90
2022-08-11T04:20:09.118Z,99.90
2022-08-11T04:22:44.077Z,99.90
2022-08-11T04:25:18.036Z,99.90
2022-08-11T04:27:41.713Z,99.90
2022-08-11T04:30:09.014Z,99.90
2022-08-11T04:32:28.559Z,99.90
2022-08-11T04:34:58.160Z,99.90
2022-08-11T04:37:27.363Z,99.90
2022-08-11T04:39:54.523Z,99.90
2022-08-11T04:43:09.913Z,99.90
2022-08-11T04:45:20.870Z,99.90
2022-08-11T04:48:21.977Z,99.90
2022-08-11T04:51:16.972Z,99.90
2022-08-11T04:53:47.651Z,99.90
2022-08-11T04:56:37.056Z,99.90
2022-08-11T04:59:03.561Z,99.90
2022-08-11T05:01:43.120Z,99.90
2022-08-11T05:04:51.846Z,99.90
2022-08-11T05:06:53.531Z,99.90
2022-08-11T05:09:16.235Z,99.90
2022-08-11T05:11:24.069Z,99.90
2022-08-11T05:13:52.911Z,99.90
2022-08-11T05:16:29.023Z,99.90
2022-08-11T05:18:52.003Z,99.90
2022-08-11T05:21:16.228Z,99.90
2022-08-11T05:23:39.964Z,99.90
2022-08-11T05:26:42.906Z,99.90
2022-08-11T05:29:19.857Z,99.90
2022-08-11T05:31:51.204Z,99.90
2022-08-11T05:34:18.520Z,99.90
2022-08-11T05:36:45.041Z,99.90
2022-08-11T05:39:18.077Z,99.90
2022-08-11T05:41:41.701Z,99.90
2022-08-11T05:44:21.542Z,99.90
2022-08-11T05:46:45.272Z,99.90
2022-08-11T05:49:06.529Z,99.90
2022-08-11T05:51:30.499Z,99.90
2022-08-11T05:53:52.183Z,99.90
2022-08-11T05:56:12.926Z,99.90
2022-08-11T05:58:15.420Z,99.90
2022-08-11T06:00:18.690Z,99.90
2022-08-11T06:02:20.714Z,99.90
2022-08-11T06:04:25.387Z,99.90
2022-08-11T06:06:29.148Z,99.90
2022-08-11T06:08:37.913Z,99.90
2022-08-11T06:10:48.747Z,99.90
2022-08-11T06:13:07.713Z,99.90
2022-08-11T06:15:17.510Z,99.90
2022-08-11T06:17:25.157Z,99.90
2022-08-11T06:19:40.206Z,99.90
2022-08-11T06:21:47.037Z,99.90
2022-08-11T06:23:50.340Z,99.90
2022-08-11T06:25:59.097Z,99.90
2022-08-11T06:28:11.004Z,99.90
2022-08-11T06:30:13.995Z,99.90
2022-08-11T06:32:16.579Z,99.90
2022-08-11T06:34:52.908Z,99.90
2022-08-11T06:37:20.343Z,99.90
2022-08-11T06:40:02.348Z,99.90
2022-08-11T06:42:09.574Z,99.90
2022-08-11T06:44:14.011Z,99.90
2022-08-11T06:46:28.386Z,99.90
2022-08-11T06:48:32.836Z,99.90
2022-08-11T06:50:53.884Z,99.90
2022-08-11T06:52:56.155Z,99.90
2022-08-11T06:55:06.572Z,99.90
2022-08-11T06:57:33.030Z,99.90
2022-08-11T06:59:55.654Z,99.90
2022-08-11T07:02:06.892Z,99.90
2022-08-11T07:04:11.111Z,99.90
2022-08-11T07:06:50.514Z,99.90
2022-08-11T07:09:35.296Z,99.90
2022-08-11T07:12:11.082Z,99.90
2022-08-11T07:14:38.608Z,99.90
2022-08-11T07:16:44.495Z,99.90
2022-08-11T07:19:05.981Z,99.90
2022-08-11T07:22:01.757Z,99.90
2022-08-11T07:24:34.492Z,99.90
2022-08-11T07:27:14.220Z,99.90
2022-08-11T07:29:16.625Z,99.90
2022-08-11T07:31:24.708Z,99.90
2022-08-11T07:34:08.308Z,99.90
2022-08-11T07:36:00.937Z,99.90
2022-08-11T07:38:07.311Z,99.90
2022-08-11T07:40:10.954Z,99.90
2022-08-11T07:42:15.563Z,99.90
2022-08-11T07:44:17.905Z,99.90
2022-08-11T07:46:40.146Z,99.90
2022-08-11T07:49:00.902Z,99.90
2022-08-11T07:51:22.052Z,99.90
2022-08-11T07:53:24.164Z,99.90
2022-08-11T07:55:50.858Z,99.90
2022-08-11T07:58:16.988Z,99.90
2022-08-11T08:00:40.500Z,99.90
2022-08-11T08:03:02.889Z,99.90
2022-08-11T08:05:25.763Z,99.90
2022-08-11T08:07:46.156Z,99.90
2022-08-11T08:10:10.049Z,99.90
2022-08-11T08:12:35.002Z,99.90
2022-08-11T08:14:56.212Z,99.90
2022-08-11T08:17:16.976Z,99.90
2022-08-11T08:19:21.352Z,99.90
2022-08-11T08:21:23.167Z,99.90
2022-08-11T08:23:34.061Z,99.90
2022-08-11T08:25:40.132Z,99.90
2022-08-11T08:27:43.639Z,99.90
2022-08-11T08:30:04.755Z,99.90
2022-08-11T08:32:08.858Z,99.90
2022-08-11T08:34:11.769Z,99.90
2022-08-11T08:36:16.895Z,99.90
2022-08-11T08:38:19.898Z,99.90
2022-08-11T08:40:21.857Z,99.90
2022-08-11T08:42:28.224Z,99.90
2022-08-11T08:44:39.207Z,99.90
2022-08-11T08:46:50.536Z,99.90
2022-08-11T08:48:53.886Z,99.90
2022-08-11T08:51:22.824Z,99.90
2022-08-11T08:53:32.829Z,99.90
2022-08-11T08:55:34.876Z,99.90
2022-08-11T08:57:40.136Z,99.90
2022-08-11T08:59:48.878Z,99.90
2022-08-11T09:02:03.383Z,99.70
2022-08-11T09:04:13.542Z,99.90
2022-08-11T09:06:19.488Z,99.90
2022-08-11T09:08:25.089Z,99.90
2022-08-11T09:10:31.041Z,99.50
2022-08-11T09:12:35.730Z,99.00
2022-08-11T09:15:01.059Z,99.90
2022-08-11T09:17:02.938Z,98.80
2022-08-11T09:19:05.193Z,97.00
2022-08-11T09:21:10.066Z,96.50
2022-08-11T09:26:18.395Z,95.20
2022-08-11T09:28:22.612Z,95.90
2022-08-11T09:30:25.928Z,96.30
2022-08-11T09:32:29.399Z,95.90
2022-08-11T09:34:31.467Z,95.30
2022-08-11T09:36:52.071Z,96.10
2022-08-11T09:39:13.171Z,94.90
2022-08-11T09:44:04.647Z,94.00
2022-08-11T09:45:16.295Z,94.00
2022-08-11T09:46:08.776Z,93.40
2022-08-11T09:48:17.729Z,92.30
2022-08-11T09:50:19.838Z,92.20
2022-08-11T09:52:26.219Z,92.90
2022-08-11T09:54:28.201Z,91.30
2022-08-11T09:56:49.172Z,91.70
2022-08-11T09:58:51.097Z,91.00
2022-08-11T10:00:57.975Z,91.60
2022-08-11T10:03:02.669Z,92.20
2022-08-11T10:05:23.715Z,91.30
2022-08-11T10:07:26.050Z,88.40
2022-08-11T10:09:36.377Z,87.70
2022-08-11T10:11:41.778Z,88.90
2022-08-11T10:14:32.633Z,87.60
2022-08-11T10:16:34.645Z,87.70
2022-08-11T10:18:49.401Z,90.90
2022-08-11T10:21:02.161Z,90.00
2022-08-11T10:23:23.867Z,90.50
2022-08-11T10:25:44.507Z,86.50
2022-08-11T10:28:33.057Z,88.20
2022-08-11T10:30:30.215Z,85.30
2022-08-11T10:32:58.328Z,85.50
2022-08-11T10:35:02.793Z,83.80
2022-08-11T10:37:07.093Z,82.50
2022-08-11T10:39:22.009Z,80.60
2022-08-11T10:42:06.882Z,86.00
2022-08-11T10:44:10.528Z,83.50
2022-08-11T10:46:32.301Z,80.30
2022-08-11T10:48:38.110Z,76.50
2022-08-11T10:51:03.906Z,80.20
2022-08-11T10:53:27.156Z,77.00
2022-08-11T10:55:48.263Z,78.60
2022-08-11T10:58:08.595Z,75.20
2022-08-11T11:00:15.077Z,75.40
2022-08-11T11:02:18.896Z,77.60
2022-08-11T11:04:28.352Z,76.70
2022-08-11T11:06:48.622Z,73.40
2022-08-11T11:08:57.505Z,70.60
2022-08-11T11:11:04.511Z,70.50
2022-08-11T11:13:25.234Z,73.80
2022-08-11T11:15:48.650Z,70.90
2022-08-11T11:18:11.759Z,67.50
2022-08-11T11:20:36.418Z,69.00
2022-08-11T11:22:48.170Z,67.70
2022-08-11T11:25:11.229Z,66.60
2022-08-11T11:27:48.900Z,64.30
2022-08-11T11:30:11.830Z,78.50
2022-08-11T11:32:50.520Z,65.20
2022-08-11T11:35:26.887Z,62.90
2022-08-11T11:37:33.727Z,64.30
2022-08-11T11:39:39.837Z,66.00
2022-08-11T11:41:45.298Z,58.10
2022-08-11T11:43:48.335Z,64.10
2022-08-11T11:45:50.305Z,64.80
2022-08-11T11:47:54.467Z,63.50
2022-08-11T11:49:57.016Z,60.60
2022-08-11T11:52:01.653Z,66.70
2022-08-11T11:54:05.021Z,58.40
2022-08-11T11:56:07.587Z,56.20
2022-08-11T11:58:29.382Z,55.50
2022-08-11T12:00:52.041Z,56.70
2022-08-11T12:02:58.053Z,57.60
2022-08-11T12:05:02.061Z,55.70
2022-08-11T12:07:24.111Z,60.50
2022-08-11T12:09:26.220Z,58.80
2022-08-11T12:11:48.605Z,50.70
2022-08-11T12:13:53.126Z,53.20
2022-08-11T12:16:04.434Z,56.20
2022-08-11T12:18:18.614Z,50.20
2022-08-11T12:20:30.937Z,47.20
2022-08-11T12:22:56.484Z,48.70
2022-08-11T12:25:17.006Z,50.70
2022-08-11T12:27:24.976Z,46.50
2022-08-11T12:29:32.254Z,52.80
2022-08-11T12:31:38.504Z,51.70
2022-08-11T12:33:41.712Z,47.90
2022-08-11T12:36:00.695Z,48.10
2022-08-11T12:38:18.324Z,54.00
2022-08-11T12:41:15.976Z,48.70
2022-08-11T12:43:37.284Z,44.30
2022-08-11T12:45:42.331Z,51.30
2022-08-11T12:48:58.640Z,49.00
2022-08-11T12:50:53.513Z,44.70
2022-08-11T12:52:57.184Z,45.00
2022-08-11T12:55:12.978Z,50.50
2022-08-11T12:57:38.339Z,47.90
2022-08-11T13:00:01.748Z,43.60
2022-08-11T13:02:22.939Z,46.50
2022-08-11T13:04:46.590Z,44.30
2022-08-11T13:06:52.824Z,41.60
2022-08-11T13:09:01.109Z,46.90
2022-08-11T13:11:23.040Z,43.10
2022-08-11T13:13:52.086Z,51.60
2022-08-11T13:15:49.880Z,42.80
2022-08-11T13:17:54.813Z,41.40
2022-08-11T13:20:00.638Z,45.80
2022-08-11T13:22:07.351Z,42.30
2022-08-11T13:24:09.677Z,45.70
2022-08-11T13:26:12.016Z,48.60
2022-08-11T13:28:14.386Z,44.50
2022-08-11T13:30:40.317Z,44.00
2022-08-11T13:32:48.021Z,49.60
2022-08-11T13:34:50.031Z,46.40
2022-08-11T13:36:54.275Z,51.00
2022-08-11T13:38:58.479Z,45.00
2022-08-11T13:41:00.891Z,40.80
2022-08-11T13:43:03.202Z,47.90
2022-08-11T13:45:07.486Z,41.40
2022-08-11T13:47:13.138Z,42.30
2022-08-11T13:49:17.400Z,43.40
2022-08-11T13:51:36.669Z,43.70
2022-08-11T13:53:39.077Z,42.80
2022-08-11T13:55:51.445Z,42.70
2022-08-11T13:58:08.234Z,42.60
2022-08-11T14:00:26.894Z,43.80
2022-08-11T14:02:31.861Z,44.90
2022-08-11T14:04:51.333Z,48.00
2022-08-11T14:06:55.219Z,53.30
2022-08-11T14:08:58.186Z,46.00
2022-08-11T14:12:22.704Z,48.30
2022-08-11T14:13:48.315Z,58.00
2022-08-11T14:15:52.293Z,51.60
2022-08-11T14:18:06.452Z,53.30
2022-08-11T14:20:38.187Z,47.10
2022-08-11T14:22:33.669Z,45.30
2022-08-11T14:24:41.259Z,46.00
2022-08-11T14:26:44.271Z,47.90
2022-08-11T14:28:48.015Z,47.50
2022-08-11T14:31:00.506Z,47.80
2022-08-11T14:33:04.963Z,46.60
2022-08-11T14:35:25.329Z,47.30
2022-08-11T14:37:29.106Z,54.80
2022-08-11T14:39:57.185Z,49.60
2022-08-11T14:42:25.869Z,51.40
2022-08-11T14:44:47.478Z,52.20
2022-08-11T14:47:05.671Z,45.90
2022-08-11T14:49:29.188Z,51.50
2022-08-11T14:51:31.646Z,49.90
2022-08-11T14:53:33.536Z,53.00
2022-08-11T14:56:02.959Z,43.90
2022-08-11T14:58:08.480Z,45.30
2022-08-11T15:00:15.747Z,54.40
2022-08-11T15:02:37.804Z,45.00
2022-08-11T15:04:40.122Z,44.70
2022-08-11T15:06:43.013Z,50.70
2022-08-11T15:08:57.163Z,45.90
2022-08-11T15:10:59.088Z,42.30
2022-08-11T15:13:01.196Z,48.70
2022-08-11T15:15:25.710Z,41.50
2022-08-11T15:17:39.381Z,46.40
2022-08-11T15:20:04.703Z,41.80
2022-08-11T15:22:45.067Z,39.40
2022-08-11T15:24:47.020Z,43.10
2022-08-11T15:27:09.374Z,42.20
2022-08-11T15:29:32.582Z,39.00
2022-08-11T15:31:56.094Z,45.60
2022-08-11T15:34:23.549Z,42.00
2022-08-11T15:36:45.948Z,43.40
2022-08-11T15:39:22.297Z,43.50
2022-08-11T15:41:58.654Z,45.70
2022-08-11T15:44:44.450Z,46.30
2022-08-11T15:46:52.497Z,46.20
2022-08-11T15:49:25.580Z,37.60
2022-08-11T15:52:02.212Z,38.00
2022-08-11T15:54:11.691Z,37.40
2022-08-11T15:56:16.829Z,38.00
2022-08-11T15:58:42.068Z,43.90
2022-08-11T16:01:08.849Z,50.40
2022-08-11T16:04:06.502Z,37.50
2022-08-11T16:05:55.493Z,38.60
2022-08-11T16:07:59.781Z,38.50
2022-08-11T16:10:09.562Z,40.10
2022-08-11T16:12:17.426Z,40.60
2022-08-11T16:14:40.129Z,40.70
2022-08-11T16:16:42.904Z,41.40
2022-08-11T16:18:57.682Z,44.50
2022-08-11T16:21:11.717Z,42.30
2022-08-11T16:23:34.435Z,42.00
2022-08-11T16:27:03.406Z,55.20
2022-08-11T16:28:06.507Z,48.10
2022-08-11T16:30:10.426Z,49.80
2022-08-11T16:32:21.701Z,47.80
2022-08-11T16:34:44.156Z,51.60
2022-08-11T16:37:04.791Z,50.20
2022-08-11T16:39:09.012Z,48.20
2022-08-11T16:41:14.071Z,45.90
2022-08-11T16:43:37.028Z,45.60
2022-08-11T16:45:59.560Z,49.10
2022-08-11T16:48:36.244Z,47.80
2022-08-11T16:50:29.820Z,45.80
2022-08-11T16:52:31.593Z,46.70
2022-08-11T16:54:35.015Z,47.20
2022-08-11T16:56:43.329Z,46.30
2022-08-11T16:59:16.299Z,47.10
2022-08-11T17:01:28.565Z,47.20
2022-08-11T17:03:51.224Z,47.70
2022-08-11T17:06:20.895Z,49.60
2022-08-11T17:08:57.258Z,47.00
2022-08-11T17:11:23.438Z,46.60
2022-08-11T17:13:42.439Z,51.70
2022-08-11T17:16:08.285Z,49.50
2022-08-11T17:18:37.874Z,48.80
2022-08-11T17:20:45.824Z,49.50
2022-08-11T17:23:08.748Z,49.20
2022-08-11T17:25:17.320Z,53.20
2022-08-11T17:27:21.241Z,53.50
2022-08-11T17:29:54.955Z,50.90
2022-08-11T17:32:28.005Z,51.00
2022-08-11T17:34:48.851Z,54.20
2022-08-11T17:36:53.455Z,56.00
2022-08-11T17:38:55.423Z,54.50
2022-08-11T17:41:23.587Z,57.10
2022-08-11T17:46:22.230Z,51.80
2022-08-11T17:50:56.452Z,57.90
2022-08-11T17:55:54.753Z,52.30
2022-08-11T17:58:16.846Z,58.50
2022-08-11T18:00:18.945Z,59.20
2022-08-11T18:02:49.851Z,59.00
2022-08-11T18:04:53.233Z,59.20
2022-08-11T18:06:55.783Z,58.90
2022-08-11T18:09:17.229Z,61.70
2022-08-11T18:12:06.810Z,62.10
2022-08-11T18:14:22.560Z,63.50
2022-08-11T18:16:42.992Z,65.00
2022-08-11T18:19:04.207Z,59.20
2022-08-11T18:21:29.227Z,61.30
2022-08-11T18:23:52.165Z,61.70
2022-08-11T18:26:17.255Z,66.30
2022-08-11T18:31:21.695Z,66.60
2022-08-11T18:34:06.421Z,66.40
2022-08-11T18:36:32.122Z,67.90
2022-08-11T18:38:52.384Z,68.50
2022-08-11T18:41:18.171Z,65.90
2022-08-11T18:43:44.552Z,67.40
2022-08-11T18:46:11.051Z,69.20
2022-08-11T18:51:30.865Z,65.10
2022-08-11T18:54:00.738Z,65.80
2022-08-11T18:56:21.859Z,70.60
2022-08-11T18:58:48.259Z,68.10
2022-08-11T19:03:49.280Z,67.50
2022-08-11T19:06:39.236Z,70.00
2022-08-11T19:14:34.678Z,68.50
2022-08-11T19:16:56.844Z,68.10
2022-08-11T19:19:18.295Z,69.30
2022-08-11T19:24:26.465Z,70.40
2022-08-11T19:26:48.345Z,71.70
2022-08-11T19:30:07.955Z,71.00
2022-08-11T19:31:57.523Z,71.70
2022-08-11T19:34:19.555Z,71.60
2022-08-11T19:36:42.766Z,73.00
2022-08-11T19:39:05.279Z,71.20
2022-08-11T19:41:52.336Z,73.20
2022-08-11T19:44:07.948Z,74.40
2022-08-11T19:46:29.676Z,80.40
2022-08-11T19:49:13.044Z,83.60
2022-08-11T19:51:43.378Z,83.40
2022-08-11T19:54:07.666Z,81.30
2022-08-11T19:56:29.572Z,85.90
2022-08-11T20:01:25.187Z,82.30
2022-08-11T20:03:46.555Z,81.10
2022-08-11T20:06:08.130Z,82.30
2022-08-11T20:08:29.185Z,82.80
2022-08-11T20:10:51.928Z,78.70
2022-08-11T20:15:59.795Z,77.60
2022-08-11T20:18:22.042Z,79.70
2022-08-11T20:20:45.240Z,79.30
2022-08-11T20:23:12.437Z,79.50
2022-08-11T20:25:35.677Z,82.10
2022-08-11T20:28:09.469Z,83.30
2022-08-11T20:30:30.661Z,82.60
2022-08-11T20:32:52.947Z,80.10
2022-08-11T20:35:16.244Z,80.40
2022-08-11T20:37:37.619Z,80.10
2022-08-11T20:40:00.645Z,81.30
2022-08-11T20:42:23.643Z,84.50
2022-08-11T20:44:48.154Z,82.60
2022-08-11T20:47:12.959Z,84.00
2022-08-11T20:49:44.885Z,81.40
2022-08-11T20:52:12.272Z,81.80
2022-08-11T20:54:38.180Z,81.90
2022-08-11T20:57:04.961Z,85.60
2022-08-11T20:59:49.558Z,84.00
2022-08-11T21:02:18.163Z,85.50
2022-08-11T21:04:54.438Z,83.10
2022-08-11T21:07:23.590Z,84.50
2022-08-11T21:10:09.246Z,83.00
2022-08-11T21:14:55.873Z,83.40
2022-08-11T21:17:27.718Z,83.60
2022-08-11T21:19:59.893Z,84.20
2022-08-11T21:22:23.023Z,85.40
2022-08-11T21:24:48.901Z,84.40
2022-08-11T21:27:16.232Z,88.30
2022-08-11T21:29:44.327Z,86.00
2022-08-11T21:32:06.402Z,85.30
2022-08-11T21:34:28.965Z,86.50
2022-08-11T21:36:51.106Z,85.60
2022-08-11T21:39:12.335Z,86.20
2022-08-11T21:41:34.513Z,87.50
2022-08-11T21:43:59.767Z,86.50
2022-08-11T21:46:23.259Z,87.50
2022-08-11T21:48:47.367Z,88.00
2022-08-11T21:51:07.790Z,88.70
2022-08-11T21:53:28.899Z,89.20
2022-08-11T21:55:50.206Z,89.60
2022-08-11T21:58:12.131Z,90.20
2022-08-11T22:00:33.275Z,90.60
2022-08-11T22:02:54.726Z,90.80
2022-08-11T22:05:15.279Z,91.20
2022-08-11T22:07:39.540Z,91.30
2022-08-11T22:10:01.811Z,91.60
2022-08-11T22:12:45.197Z,91.80
2022-08-11T22:15:06.318Z,92.10
2022-08-11T22:17:26.597Z,92.40
2022-08-11T22:19:48.085Z,92.40
2022-08-11T22:22:09.205Z,92.60
2022-08-11T22:24:32.561Z,92.60
2022-08-11T22:26:54.547Z,92.70
2022-08-11T22:29:15.272Z,92.90
2022-08-11T22:31:36.360Z,93.30
2022-08-11T22:34:02.891Z,93.50
2022-08-11T22:36:36.208Z,93.60
2022-08-11T22:39:00.987Z,93.60
2022-08-11T22:41:21.517Z,93.60
2022-08-11T22:43:45.593Z,94.40
2022-08-11T22:46:06.108Z,94.20
2022-08-11T22:48:27.971Z,93.90
2022-08-11T22:50:49.730Z,93.80
2022-08-11T22:53:10.832Z,93.80
2022-08-11T22:55:32.338Z,94.20
2022-08-11T22:58:00.656Z,94.00
2022-08-11T23:00:23.467Z,94.00
2022-08-11T23:02:51.117Z,94.40
2022-08-11T23:05:15.141Z,95.00
2022-08-11T23:07:50.756Z,95.40
2022-08-11T23:10:12.587Z,95.30
2022-08-11T23:12:41.835Z,95.70
2022-08-11T23:15:08.952Z,96.00
2022-08-11T23:17:31.388Z,96.10
2022-08-11T23:20:00.340Z,96.40
2022-08-11T23:22:32.159Z,96.50
2022-08-11T23:25:17.792Z,96.50
2022-08-11T23:27:39.281Z,96.80
2022-08-11T23:30:03.656Z,97.00
2022-08-11T23:32:25.144Z,96.90
2022-08-11T23:35:04.112Z,96.70
2022-08-11T23:37:41.023Z,97.30
2022-08-11T23:40:01.399Z,97.30
2022-08-11T23:42:22.779Z,97.70
2022-08-11T23:44:44.766Z,97.90
2022-08-11T23:47:08.279Z,98.30
2022-08-11T23:49:29.351Z,98.20
2022-08-11T23:51:54.859Z,98.60
2022-08-11T23:54:16.543Z,98.80
2022-08-11T23:56:37.585Z,99.40
2022-08-11T23:58:58.141Z,99.50
